Auburn, Kansas
Current Conditions -  °F | °C
As of 3:53 AM on Tuesday 27 Jan 2015 (Local Time) from KFOE Reporting Station
Clear Clear  
Wind Chill: 33°   Ceiling: Unl
Heat Index: 33°   Visibility: 10mi
Dew Point: 26°   Wind: 3mph
Humidity: 75%   Direction: 350°N
Pressure: 30.08"   Gusts: NA
Location:  38.91°N, 95.82°W
Report Text: KFOE 270953Z AUTO 35003KT 10SM CLR 01/M03 A3008 RMK AO2 SLP188 T00061033
Loading
Personal Weather Stations






























Interactive Weather Map New forecast layout! Learn more

10-Day Weather Forecast

Advertisements
Track Severe Weather on mobile